Time;durP1;ratioP1;P1;durP2;ratioP2;P2;SDS_P1;SDS_P2;PMS_P1;PMS_P2;Temp;Humidity;BMP_temperature;BMP_pressure;BME280_temperature;BME280_humidity;BME280_pressure;Samples;Min_cycle;Max_cycle;Signal;HPM_P1;HPM_P2
2022/05/13 00:00:44;;;;;;;4.70;3.50;;;15.30;86.50;;;;;;2089014;28;20060;-72
2022/05/13 00:01:45;;;;;;;7.38;3.85;;;15.30;86.60;;;;;;2089115;28;20041;-73
2022/05/13 00:02:45;;;;;;;4.93;3.40;;;15.30;86.60;;;;;;2089029;28;20037;-73
2022/05/13 00:03:47;;;;;;;4.00;3.22;;;15.30;86.80;;;;;;2089101;28;20055;-72
2022/05/13 00:04:47;;;;;;;5.18;3.50;;;15.30;86.80;;;;;;2088776;28;20037;-73
2022/05/13 00:05:50;;;;;;;4.57;3.25;;;15.30;87.00;;;;;;2089020;28;20027;-72
2022/05/13 00:06:50;;;;;;;6.43;3.75;;;15.30;87.10;;;;;;2089151;28;20116;-72
2022/05/13 00:07:51;;;;;;;4.32;3.30;;;15.30;87.10;;;;;;2088923;28;20692;-73
2022/05/13 00:08:52;;;;;;;6.20;3.70;;;15.30;87.20;;;;;;2088969;28;20032;-72
2022/05/13 00:10:00;;;;;;;5.32;3.53;;;15.30;87.30;;;;;;2088287;28;20071;-73
2022/05/13 00:11:04;;;;;;;5.28;3.40;;;15.20;87.50;;;;;;2088613;28;20647;-73
2022/05/13 00:12:05;;;;;;;6.07;3.75;;;15.20;87.50;;;;;;2088570;28;20033;-73
2022/05/13 00:13:06;;;;;;;4.55;3.22;;;15.20;87.40;;;;;;2088210;28;20025;-73
2022/05/13 00:14:08;;;;;;;5.13;3.58;;;15.20;87.40;;;;;;2088169;28;20109;-73
2022/05/13 00:15:12;;;;;;;3.78;3.05;;;15.20;87.50;;;;;;2088500;28;20032;-73
2022/05/13 00:16:13;;;;;;;3.88;3.20;;;15.20;87.50;;;;;;2088573;28;20021;-73
2022/05/13 00:17:15;;;;;;;4.03;3.22;;;15.20;87.50;;;;;;2089129;28;20025;-73
2022/05/13 00:18:17;;;;;;;10.18;3.58;;;15.20;87.50;;;;;;2089137;28;20120;-73
2022/05/13 00:19:17;;;;;;;4.15;3.08;;;15.20;87.60;;;;;;2089361;28;20025;-73
2022/05/13 00:20:18;;;;;;;5.97;3.47;;;15.20;87.60;;;;;;2089159;28;20533;-73
2022/05/13 00:21:19;;;;;;;4.20;3.55;;;15.20;87.70;;;;;;2089331;28;20115;-73
2022/05/13 00:22:20;;;;;;;6.75;3.70;;;15.20;87.80;;;;;;2089271;28;20541;-73
2022/05/13 00:23:20;;;;;;;5.88;3.40;;;15.20;88.00;;;;;;2089198;28;20040;-74
2022/05/13 00:24:21;;;;;;;4.72;3.50;;;15.20;88.90;;;;;;2088801;28;20435;-75
2022/05/13 00:25:28;;;;;;;4.57;3.67;;;15.20;88.30;;;;;;2089239;28;20035;-74
2022/05/13 00:26:28;;;;;;;4.38;3.50;;;15.20;88.30;;;;;;2089151;28;20037;-74
2022/05/13 00:27:29;;;;;;;5.53;3.47;;;15.10;88.50;;;;;;2089112;28;20398;-73
2022/05/13 00:28:29;;;;;;;4.03;3.30;;;15.20;88.70;;;;;;2088941;28;20124;-72
2022/05/13 00:29:30;;;;;;;3.72;3.30;;;15.20;88.50;;;;;;2088374;28;20204;-73
2022/05/13 00:30:34;;;;;;;5.60;3.47;;;15.20;88.50;;;;;;2088377;28;20043;-73
2022/05/13 00:31:34;;;;;;;5.25;3.47;;;15.20;88.70;;;;;;2089079;28;20029;-73
2022/05/13 00:32:36;;;;;;;4.28;3.45;;;15.10;88.90;;;;;;2088954;28;20032;-73
2022/05/13 00:33:38;;;;;;;3.88;3.47;;;15.10;89.10;;;;;;2089039;28;20666;-73
2022/05/13 00:34:39;;;;;;;5.13;3.60;;;15.10;89.20;;;;;;2087570;28;20117;-73
2022/05/13 00:35:40;;;;;;;4.30;3.38;;;15.10;90.00;;;;;;2088361;28;20067;-72
2022/05/13 00:36:41;;;;;;;6.47;3.42;;;15.10;89.40;;;;;;2088369;28;20045;-73
2022/05/13 00:37:41;;;;;;;4.25;3.53;;;15.20;89.60;;;;;;2088877;28;20028;-72
2022/05/13 00:38:42;;;;;;;4.80;3.30;;;15.10;89.60;;;;;;2088872;28;20104;-72
2022/05/13 00:39:43;;;;;;;4.75;3.60;;;15.10;89.70;;;;;;2088183;28;20049;-73
2022/05/13 00:40:44;;;;;;;5.25;3.40;;;15.10;89.60;;;;;;2088120;28;20025;-73
2022/05/13 00:41:46;;;;;;;7.88;4.03;;;15.20;89.80;;;;;;2088041;28;20504;-73
2022/05/13 00:42:48;;;;;;;5.93;3.58;;;15.20;89.90;;;;;;2088227;28;20510;-72
2022/05/13 00:43:52;;;;;;;5.88;3.60;;;15.10;90.00;;;;;;2079875;28;20140;-73
2022/05/13 00:44:53;;;;;;;5.65;3.60;;;15.10;90.10;;;;;;2080200;28;20473;-73
2022/05/13 00:45:54;;;;;;;5.22;3.50;;;15.10;90.20;;;;;;2088893;28;20013;-72
2022/05/13 00:46:54;;;;;;;5.53;3.78;;;15.10;90.20;;;;;;2088105;28;20509;-73
2022/05/13 00:47:55;;;;;;;4.95;3.50;;;15.10;90.10;;;;;;2079650;28;20060;-73
2022/05/13 00:48:58;;;;;;;5.00;3.72;;;15.10;90.10;;;;;;2088067;28;20567;-73
2022/05/13 00:50:01;;;;;;;4.28;3.65;;;15.10;90.20;;;;;;2088520;28;20510;-73
2022/05/13 00:51:07;;;;;;;5.18;3.90;;;15.10;90.20;;;;;;2088195;28;20117;-74
2022/05/13 00:52:09;;;;;;;5.25;3.90;;;15.00;90.20;;;;;;2088238;28;20104;-73
2022/05/13 00:53:11;;;;;;;5.72;4.10;;;15.10;90.80;;;;;;2088814;28;20125;-74
2022/05/13 00:54:14;;;;;;;6.07;4.32;;;15.00;91.60;;;;;;2087929;28;20037;-74
2022/05/13 00:55:30;;;;;;;6.03;4.13;;;15.10;92.30;;;;;;2088128;28;20025;-73
2022/05/13 00:56:30;;;;;;;7.22;4.30;;;15.00;92.70;;;;;;2088359;28;20044;-73
2022/05/13 00:57:35;;;;;;;6.93;4.45;;;15.00;93.00;;;;;;2088783;28;20440;-73
2022/05/13 00:58:40;;;;;;;5.35;4.05;;;15.00;93.10;;;;;;2088730;28;20759;-73
2022/05/13 00:59:43;;;;;;;6.18;4.28;;;15.00;93.30;;;;;;2088731;28;20053;-73
2022/05/13 01:00:45;;;;;;;5.55;4.30;;;15.10;93.60;;;;;;2088609;28;20078;-73
2022/05/13 01:01:46;;;;;;;6.20;4.20;;;15.10;93.70;;;;;;2088760;28;20040;-73
2022/05/13 01:02:46;;;;;;;6.28;3.80;;;15.10;93.60;;;;;;2088698;28;20064;-74
2022/05/13 01:03:49;;;;;;;5.90;4.30;;;15.10;93.60;;;;;;2087897;28;20047;-73
2022/05/13 01:04:50;;;;;;;7.18;4.22;;;15.10;93.70;;;;;;2087723;28;20037;-73
2022/05/13 01:05:55;;;;;;;7.13;4.15;;;15.00;93.80;;;;;;2088616;28;20061;-73
2022/05/13 01:06:59;;;;;;;6.18;4.07;;;15.00;93.70;;;;;;2088631;28;20673;-73
2022/05/13 01:08:04;;;;;;;6.10;4.00;;;15.00;93.80;;;;;;2087887;28;20044;-72
2022/05/13 01:09:04;;;;;;;5.90;3.90;;;15.00;94.10;;;;;;2087784;28;20036;-73
2022/05/13 01:10:10;;;;;;;5.68;3.95;;;15.00;94.60;;;;;;2088414;28;20021;-73
2022/05/13 01:11:14;;;;;;;4.22;3.80;;;15.00;94.80;;;;;;2088576;28;20021;-73
2022/05/13 01:12:18;;;;;;;4.82;3.83;;;15.00;94.70;;;;;;2088581;28;20021;-73
2022/05/13 01:13:23;;;;;;;6.00;4.05;;;14.90;94.60;;;;;;2088584;28;20381;-73
2022/05/13 01:14:31;;;;;;;6.32;3.92;;;14.90;94.70;;;;;;2087693;28;20063;-72
2022/05/13 01:15:35;;;;;;;4.57;3.65;;;14.90;94.70;;;;;;2088039;28;20021;-73
2022/05/13 01:18:08;;;;;;;5.45;3.90;;;14.80;94.60;;;;;;2088557;28;20035;-73
2022/05/13 01:19:08;;;;;;;5.63;4.03;;;14.90;94.60;;;;;;2087864;28;20037;-73
2022/05/13 01:20:12;;;;;;;5.18;3.85;;;14.80;94.60;;;;;;2079534;28;20025;-73
2022/05/13 01:21:20;;;;;;;4.57;3.78;;;14.80;94.80;;;;;;2087979;28;20124;-74
2022/05/13 01:22:20;;;;;;;5.63;4.10;;;14.70;95.00;;;;;;2088604;28;20033;-73
2022/05/13 01:23:42;;;;;;;5.95;4.10;;;14.80;95.50;;;;;;2088576;28;20525;-73
2022/05/13 01:24:44;;;;;;;5.15;3.90;;;14.80;96.60;;;;;;2088125;28;20032;-73
2022/05/13 01:25:51;;;;;;;6.88;4.30;;;14.80;97.00;;;;;;2088393;28;20029;-73
2022/05/13 01:26:52;;;;;;;5.45;4.10;;;14.80;97.30;;;;;;2088580;28;20025;-73
2022/05/13 01:27:55;;;;;;;7.05;4.15;;;14.70;97.10;;;;;;2088410;28;20175;-73
2022/05/13 01:28:56;;;;;;;7.18;4.07;;;14.70;96.70;;;;;;2088316;28;20064;-72
2022/05/13 01:29:57;;;;;;;7.35;3.70;;;14.70;96.60;;;;;;2088386;28;20151;-73
2022/05/13 01:31:00;;;;;;;6.80;4.10;;;14.60;96.50;;;;;;2088403;28;20087;-73
2022/05/13 01:32:01;;;;;;;4.60;3.78;;;14.60;96.70;;;;;;2088462;28;20108;-73
2022/05/13 01:33:01;;;;;;;6.43;3.80;;;14.60;96.70;;;;;;2088252;28;20013;-73
2022/05/13 01:34:10;;;;;;;7.72;3.97;;;14.60;96.70;;;;;;2088075;28;20858;-73
2022/05/13 01:35:13;;;;;;;5.32;3.72;;;14.60;96.60;;;;;;2087944;28;20029;-73
2022/05/13 01:36:15;;;;;;;5.40;3.70;;;14.60;96.40;;;;;;2087793;28;20060;-73
2022/05/13 01:37:16;;;;;;;4.93;3.63;;;14.60;96.40;;;;;;2087914;28;20033;-73
2022/05/13 01:38:19;;;;;;;4.72;3.60;;;14.50;96.30;;;;;;2087771;28;20143;-73
2022/05/13 01:39:19;;;;;;;5.80;3.90;;;14.50;96.30;;;;;;2088448;28;20037;-73
2022/05/13 01:40:20;;;;;;;6.32;4.10;;;14.50;96.30;;;;;;2079240;28;20030;-73
2022/05/13 01:41:22;;;;;;;5.45;3.78;;;14.50;96.30;;;;;;2079571;28;20036;-73
2022/05/13 01:42:23;;;;;;;4.25;3.70;;;14.50;96.40;;;;;;2087932;28;20029;-74
2022/05/13 01:43:25;;;;;;;4.35;3.50;;;14.50;96.30;;;;;;2087738;28;20071;-73
2022/05/13 01:44:25;;;;;;;5.00;3.72;;;14.40;96.30;;;;;;2087317;28;20507;-73
2022/05/13 01:45:26;;;;;;;5.18;3.67;;;14.40;96.30;;;;;;2087642;28;20112;-73
2022/05/13 01:46:27;;;;;;;4.90;3.70;;;14.40;96.40;;;;;;2087027;28;20037;-73
2022/05/13 01:47:28;;;;;;;9.30;3.55;;;14.40;96.40;;;;;;2079395;28;20515;-73
2022/05/13 01:48:29;;;;;;;8.38;3.67;;;14.40;96.40;;;;;;2087566;28;20021;-73
2022/05/13 01:49:29;;;;;;;6.75;3.60;;;14.40;96.50;;;;;;2087683;28;20537;-73
2022/05/13 01:50:30;;;;;;;5.13;3.60;;;14.30;96.40;;;;;;2079254;28;20392;-73
2022/05/13 01:51:30;;;;;;;5.38;3.60;;;14.30;96.60;;;;;;2079455;28;20038;-73
2022/05/13 01:52:32;;;;;;;5.30;3.55;;;14.30;96.70;;;;;;2087700;28;20095;-73
2022/05/13 01:53:34;;;;;;;5.25;3.33;;;14.20;96.80;;;;;;2088289;28;20171;-73
2022/05/13 01:54:34;;;;;;;4.88;3.40;;;14.20;96.80;;;;;;2087853;28;20086;-73
2022/05/13 01:55:35;;;;;;;4.43;3.13;;;14.20;96.90;;;;;;2088732;28;20059;-73
2022/05/13 01:56:36;;;;;;;4.32;3.55;;;14.20;97.00;;;;;;2089105;28;20025;-73
2022/05/13 01:57:36;;;;;;;6.53;3.72;;;14.10;97.20;;;;;;2089068;28;20148;-73
2022/05/13 01:58:37;;;;;;;4.53;3.63;;;14.10;97.40;;;;;;2088589;28;20037;-73
2022/05/13 01:59:38;;;;;;;4.68;3.50;;;14.10;97.50;;;;;;2088661;28;20044;-73
2022/05/13 02:00:39;;;;;;;8.45;3.63;;;14.10;97.60;;;;;;2089159;28;20049;-74
2022/05/13 02:01:40;;;;;;;6.93;3.72;;;14.10;98.10;;;;;;2089083;28;20388;-73
2022/05/13 02:04:00;;;;;;;4.47;3.60;;;14.00;98.00;;;;;;2088956;28;20028;-73
2022/05/13 02:05:00;;;;;;;4.82;3.50;;;14.00;98.10;;;;;;2088675;28;20482;-73
2022/05/13 02:06:03;;;;;;;5.15;3.50;;;14.00;98.40;;;;;;2080166;28;20068;-73
2022/05/13 02:07:04;;;;;;;5.80;3.63;;;13.90;98.50;;;;;;2088365;28;20654;-73
2022/05/13 02:08:05;;;;;;;5.00;3.70;;;13.90;98.60;;;;;;2080269;28;20065;-73
2022/05/13 02:09:06;;;;;;;5.82;3.60;;;13.90;98.80;;;;;;2080946;28;20029;-72
2022/05/13 02:10:07;;;;;;;3.90;3.50;;;13.90;98.90;;;;;;2089723;28;20517;-72
2022/05/13 02:11:07;;;;;;;7.47;4.10;;;13.90;99.10;;;;;;2090770;28;20029;-74
2022/05/13 02:12:08;;;;;;;4.53;3.63;;;13.80;99.20;;;;;;2089568;28;20021;-74
2022/05/13 02:13:10;;;;;;;4.40;3.88;;;13.80;99.30;;;;;;2088566;28;20510;-75
2022/05/13 02:14:12;;;;;;;7.70;3.50;;;13.80;99.40;;;;;;2088128;28;20104;-74
2022/05/13 02:15:13;;;;;;;5.00;3.42;;;13.80;99.50;;;;;;2088406;28;20033;-72
2022/05/13 02:16:15;;;;;;;5.05;3.80;;;13.80;99.70;;;;;;2088387;28;20126;-73
2022/05/13 02:17:16;;;;;;;6.30;4.00;;;13.80;99.80;;;;;;2088241;28;20037;-72
2022/05/13 02:18:16;;;;;;;4.93;3.70;;;13.70;99.90;;;;;;2088106;28;20029;-72
2022/05/13 02:19:17;;;;;;;4.25;3.67;;;13.70;99.90;;;;;;2087524;28;20029;-73
2022/05/13 02:20:17;;;;;;;4.90;3.90;;;13.70;99.90;;;;;;2079294;28;20034;-72
2022/05/13 02:21:19;;;;;;;4.93;3.90;;;13.70;99.90;;;;;;2087752;28;20585;-73
2022/05/13 02:22:19;;;;;;;4.30;3.40;;;13.70;99.90;;;;;;2088153;28;20033;-74
2022/05/13 02:23:21;;;;;;;5.10;3.90;;;13.60;99.90;;;;;;2088256;28;20112;-72
2022/05/13 02:24:21;;;;;;;5.15;3.78;;;13.60;99.90;;;;;;2087120;28;20044;-73
2022/05/13 02:25:22;;;;;;;4.15;3.75;;;13.60;99.90;;;;;;2087401;28;20112;-73
2022/05/13 02:26:23;;;;;;;4.70;3.70;;;13.60;99.90;;;;;;2088119;28;20128;-73
2022/05/13 02:27:24;;;;;;;6.20;3.90;;;13.60;99.90;;;;;;2088147;28;20044;-73
2022/05/13 02:28:25;;;;;;;7.63;3.72;;;13.60;99.90;;;;;;2088075;28;20029;-73
2022/05/13 02:29:25;;;;;;;4.70;3.88;;;13.60;99.90;;;;;;2088163;28;20055;-73
2022/05/13 02:30:27;;;;;;;5.03;3.80;;;13.60;99.90;;;;;;2087993;28;20514;-73
2022/05/13 02:31:30;;;;;;;4.75;3.72;;;13.60;99.90;;;;;;2087409;28;20791;-73
2022/05/13 02:32:31;;;;;;;8.07;3.80;;;13.50;99.90;;;;;;2087420;28;20438;-72
2022/05/13 02:33:32;;;;;;;5.78;3.92;;;13.50;99.90;;;;;;2088057;28;20033;-73
2022/05/13 02:34:36;;;;;;;4.75;3.83;;;13.50;99.90;;;;;;2087811;28;20018;-73
2022/05/13 02:35:37;;;;;;;5.57;4.07;;;13.50;99.90;;;;;;2088011;28;20032;-73
2022/05/13 02:36:37;;;;;;;4.57;3.80;;;13.50;99.90;;;;;;2087346;28;20051;-72
2022/05/13 02:37:38;;;;;;;4.97;3.80;;;13.50;99.90;;;;;;2078990;28;20025;-72
2022/05/13 02:38:39;;;;;;;5.45;3.80;;;13.50;99.90;;;;;;2087387;28;20029;-73
2022/05/13 02:39:40;;;;;;;4.50;3.67;;;13.50;99.90;;;;;;2087285;28;20039;-72
2022/05/13 02:42:01;;;;;;;6.15;3.83;;;13.40;99.90;;;;;;2087566;28;20083;-72
2022/05/13 02:43:02;;;;;;;5.18;3.58;;;13.40;99.90;;;;;;2087970;28;20029;-71
2022/05/13 02:44:02;;;;;;;5.78;3.95;;;13.40;99.90;;;;;;2087163;28;20027;-73
2022/05/13 02:45:04;;;;;;;5.53;4.00;;;13.40;99.90;;;;;;2078993;28;20044;-73
2022/05/13 02:46:05;;;;;;;4.88;3.78;;;13.40;99.90;;;;;;2087298;28;20021;-74
2022/05/13 02:47:06;;;;;;;4.22;3.83;;;13.30;99.90;;;;;;2088048;28;20017;-74
2022/05/13 02:48:07;;;;;;;4.68;3.85;;;13.30;99.90;;;;;;2088057;28;20033;-74
2022/05/13 02:49:07;;;;;;;6.15;3.90;;;13.30;99.90;;;;;;2087634;28;20035;-74
2022/05/13 02:50:18;;;;;;;6.43;4.13;;;13.30;99.90;;;;;;2087383;28;20388;-72
2022/05/13 02:51:20;;;;;;;;;;;13.30;99.90;;;;;;2088847;28;20824;-74
2022/05/13 02:52:20;;;;;;;5.15;3.90;;;13.30;99.90;;;;;;2088098;28;19917;-73
2022/05/13 02:53:22;;;;;;;4.30;3.90;;;13.30;99.90;;;;;;2088133;28;20033;-74
2022/05/13 02:54:23;;;;;;;4.10;3.70;;;13.30;99.90;;;;;;2088027;28;20014;-74
2022/05/13 02:55:23;;;;;;;6.55;4.15;;;13.30;99.90;;;;;;2087455;28;20036;-73
2022/05/13 02:56:24;;;;;;;3.95;3.55;;;13.20;99.90;;;;;;2087296;28;20036;-74
2022/05/13 02:57:25;;;;;;;5.00;3.95;;;13.30;99.90;;;;;;2087620;28;20108;-74
2022/05/13 02:58:26;;;;;;;4.38;3.60;;;13.20;99.90;;;;;;2087131;28;20714;-74
2022/05/13 02:59:26;;;;;;;4.88;3.78;;;13.20;99.90;;;;;;2079034;28;20029;-74
2022/05/13 03:00:27;;;;;;;6.13;4.25;;;13.20;99.90;;;;;;2079005;28;20029;-74
2022/05/13 03:01:28;;;;;;;5.03;3.90;;;13.20;99.90;;;;;;2079011;28;20033;-73
2022/05/13 03:02:28;;;;;;;5.60;4.03;;;13.20;99.90;;;;;;2087326;28;20036;-74
2022/05/13 03:03:30;;;;;;;4.57;3.83;;;13.20;99.90;;;;;;2087893;28;20037;-74
2022/05/13 03:04:30;;;;;;;4.50;4.00;;;13.20;99.90;;;;;;2087599;28;20186;-74
2022/05/13 03:05:31;;;;;;;4.93;4.05;;;13.20;99.90;;;;;;2078823;28;20045;-73
2022/05/13 03:06:32;;;;;;;7.53;4.35;;;13.20;99.90;;;;;;2079168;28;20043;-74
2022/05/13 03:07:32;;;;;;;5.63;4.15;;;13.20;99.90;;;;;;2086979;28;20064;-73
2022/05/13 03:08:33;;;;;;;5.75;4.13;;;13.10;99.90;;;;;;2086966;28;20029;-74
2022/05/13 03:09:34;;;;;;;6.05;4.50;;;13.10;99.90;;;;;;2087680;28;20048;-73
2022/05/13 03:10:37;;;;;;;4.95;4.20;;;13.10;99.90;;;;;;2087653;28;20033;-74
2022/05/13 03:11:37;;;;;;;5.70;4.47;;;13.10;99.90;;;;;;2087146;28;20021;-72
2022/05/13 03:12:39;;;;;;;7.00;4.57;;;13.10;99.90;;;;;;2087112;28;20028;-72
2022/05/13 03:13:40;;;;;;;4.75;4.18;;;13.10;99.90;;;;;;2087051;28;20060;-72
2022/05/13 03:14:40;;;;;;;5.85;4.30;;;13.00;99.90;;;;;;2086838;28;20037;-72
2022/05/13 03:15:41;;;;;;;6.22;4.40;;;13.00;99.90;;;;;;2087779;28;20131;-73
2022/05/13 03:16:42;;;;;;;7.25;4.63;;;13.00;99.90;;;;;;2087742;28;20468;-73
2022/05/13 03:17:42;;;;;;;7.07;4.47;;;13.00;99.90;;;;;;2087046;28;20029;-74
2022/05/13 03:18:43;;;;;;;5.95;4.50;;;13.00;99.90;;;;;;2086921;28;20609;-74
2022/05/13 03:19:44;;;;;;;5.50;4.30;;;13.00;99.90;;;;;;2087080;28;20037;-74
2022/05/13 03:20:44;;;;;;;4.93;4.30;;;13.00;99.90;;;;;;2087218;28;20025;-74
2022/05/13 03:21:45;;;;;;;5.22;4.43;;;13.00;99.90;;;;;;2087848;28;20025;-74
2022/05/13 03:22:47;;;;;;;6.32;4.25;;;13.00;99.90;;;;;;2087899;28;20043;-74
2022/05/13 03:23:48;;;;;;;5.70;4.60;;;13.00;99.90;;;;;;2087885;28;20035;-74
2022/05/13 03:24:49;;;;;;;5.75;4.50;;;13.10;99.90;;;;;;2087457;28;20033;-74
2022/05/13 03:25:50;;;;;;;7.32;4.18;;;13.10;99.90;;;;;;2087047;28;20033;-74
2022/05/13 03:26:50;;;;;;;5.30;4.53;;;13.10;99.90;;;;;;2087136;28;20044;-74
2022/05/13 03:27:51;;;;;;;5.80;4.30;;;13.10;99.90;;;;;;2087827;28;20139;-73
2022/05/13 03:28:52;;;;;;;5.78;4.38;;;13.10;99.90;;;;;;2087520;28;20043;-73
2022/05/13 03:29:52;;;;;;;5.85;4.45;;;13.10;99.90;;;;;;2087114;28;20017;-73
2022/05/13 03:30:53;;;;;;;5.38;4.55;;;13.10;99.90;;;;;;2086832;28;20054;-73
2022/05/13 03:31:54;;;;;;;6.90;4.57;;;13.10;99.90;;;;;;2087594;28;20050;-74
2022/05/13 03:32:55;;;;;;;7.38;4.72;;;13.10;99.90;;;;;;2087730;28;20162;-73
2022/05/13 03:33:55;;;;;;;5.90;4.60;;;13.10;99.90;;;;;;2087692;28;20021;-74
2022/05/13 03:34:56;;;;;;;7.15;4.70;;;13.10;99.90;;;;;;2087480;28;20021;-73
2022/05/13 03:35:56;;;;;;;5.85;4.82;;;13.10;99.90;;;;;;2087777;28;20487;-74
2022/05/13 03:36:57;;;;;;;6.80;4.80;;;13.10;99.90;;;;;;2087025;28;20396;-73
2022/05/13 03:37:58;;;;;;;9.07;4.93;;;13.10;99.90;;;;;;2087065;28;20032;-74
2022/05/13 03:38:59;;;;;;;8.43;4.82;;;13.10;99.90;;;;;;2087196;28;20064;-74
2022/05/13 03:39:59;;;;;;;8.95;4.90;;;13.10;99.90;;;;;;2087019;28;20024;-73
2022/05/13 03:41:00;;;;;;;5.30;4.78;;;13.10;99.90;;;;;;2087779;28;20029;-74
2022/05/13 03:42:00;;;;;;;5.68;4.50;;;13.10;99.90;;;;;;2087127;28;20029;-73
2022/05/13 03:43:02;;;;;;;6.90;4.78;;;13.20;99.90;;;;;;2087097;28;20649;-73
2022/05/13 03:44:04;;;;;;;6.10;4.70;;;13.20;99.90;;;;;;2087535;28;20380;-74
2022/05/13 03:45:06;;;;;;;5.82;4.78;;;13.20;99.90;;;;;;2087705;28;20529;-74
2022/05/13 03:46:07;;;;;;;6.80;4.72;;;13.10;99.90;;;;;;2086959;28;20059;-72
2022/05/13 03:47:07;;;;;;;6.38;4.68;;;13.20;99.90;;;;;;2087044;28;20400;-74
2022/05/13 03:48:09;;;;;;;5.72;4.80;;;13.20;99.90;;;;;;2087535;28;20033;-74
2022/05/13 03:49:10;;;;;;;6.20;4.78;;;13.10;99.90;;;;;;2087033;28;20021;-74
2022/05/13 03:50:12;;;;;;;8.18;5.05;;;13.20;99.90;;;;;;2086900;28;20036;-75
2022/05/13 03:51:12;;;;;;;5.72;4.63;;;13.20;99.90;;;;;;2086965;28;20036;-74
2022/05/13 03:52:14;;;;;;;6.03;4.75;;;13.20;99.90;;;;;;2087062;28;20025;-74
2022/05/13 03:53:14;;;;;;;6.22;5.20;;;13.20;99.90;;;;;;2086995;28;20062;-73
2022/05/13 03:54:15;;;;;;;6.07;5.20;;;13.20;99.90;;;;;;2086936;28;20166;-74
2022/05/13 03:55:16;;;;;;;7.63;4.80;;;13.20;99.90;;;;;;2087132;28;20025;-74
2022/05/13 03:56:17;;;;;;;7.13;4.90;;;13.30;99.90;;;;;;2087974;28;20031;-71
2022/05/13 03:57:17;;;;;;;6.40;4.85;;;13.30;99.90;;;;;;2087946;28;20056;-74
2022/05/13 03:58:18;;;;;;;5.78;5.00;;;13.30;99.90;;;;;;2087538;28;20037;-74
2022/05/13 03:59:19;;;;;;;6.00;4.70;;;13.30;99.90;;;;;;2087626;28;20037;-72
2022/05/13 04:00:20;;;;;;;6.50;5.18;;;13.30;99.90;;;;;;2087728;28;20033;-72
2022/05/13 04:01:20;;;;;;;7.10;5.82;;;13.30;99.90;;;;;;2087670;28;20041;-74
2022/05/13 04:02:21;;;;;;;7.38;5.40;;;13.30;99.90;;;;;;2086767;28;20028;-74
2022/05/13 04:03:21;;;;;;;6.20;5.20;;;13.40;99.90;;;;;;2086975;28;20449;-74
2022/05/13 04:04:22;;;;;;;7.22;5.25;;;13.40;99.90;;;;;;2087341;28;20391;-73
2022/05/13 04:09:20;;;;;;;6.25;4.93;;;13.50;99.90;;;;;;2088030;28;20056;-73
2022/05/13 04:10:21;;;;;;;7.70;4.75;;;13.70;99.90;;;;;;2089215;28;20128;-73
2022/05/13 04:11:22;;;;;;;6.45;4.90;;;13.90;99.90;;;;;;2089068;28;20029;-73
2022/05/13 04:16:26;;;;;;;8.15;6.00;;;15.30;99.90;;;;;;2089173;28;20051;-74
2022/05/13 04:17:27;;;;;;;9.82;6.30;;;15.70;99.90;;;;;;2089116;28;20024;-74
2022/05/13 04:18:28;;;;;;;6.28;5.25;;;16.00;99.90;;;;;;2089053;28;20098;-74
2022/05/13 04:19:28;;;;;;;7.40;4.90;;;16.20;99.90;;;;;;2089193;28;20025;-74
2022/05/13 04:20:29;;;;;;;6.40;4.35;;;16.50;99.90;;;;;;2088314;28;20754;-74
2022/05/13 04:21:32;;;;;;;6.45;4.80;;;16.80;99.50;;;;;;2088460;28;20041;-74
2022/05/13 04:22:33;;;;;;;6.18;4.75;;;17.00;98.80;;;;;;2080409;28;20084;-72
2022/05/13 04:23:36;;;;;;;7.57;4.50;;;17.10;97.90;;;;;;2088537;28;20044;-73
2022/05/13 04:24:36;;;;;;;7.57;4.43;;;17.30;97.30;;;;;;2088828;28;20132;-72
2022/05/13 04:25:37;;;;;;;5.28;4.00;;;17.40;96.60;;;;;;2089131;28;20043;-72
2022/05/13 04:26:38;;;;;;;5.93;4.20;;;17.40;95.90;;;;;;2088409;28;20029;-72
2022/05/13 04:27:39;;;;;;;6.78;4.50;;;17.30;95.40;;;;;;2088449;28;20037;-72
2022/05/13 04:28:41;;;;;;;9.95;4.72;;;17.10;95.60;;;;;;2088418;28;20045;-72
2022/05/13 04:29:42;;;;;;;6.35;4.60;;;16.90;96.10;;;;;;2088516;28;20112;-72
2022/05/13 04:30:42;;;;;;;5.60;4.43;;;16.80;96.60;;;;;;2089104;28;20495;-74
2022/05/13 04:31:44;;;;;;;6.18;4.70;;;16.60;96.90;;;;;;2089061;28;20471;-74
2022/05/13 04:32:44;;;;;;;6.93;5.20;;;16.40;97.30;;;;;;2089122;28;20132;-74
2022/05/13 04:33:45;;;;;;;9.52;4.88;;;16.20;97.90;;;;;;2089270;28;20032;-74
2022/05/13 04:34:45;;;;;;;5.90;5.13;;;16.00;98.70;;;;;;2088137;28;20040;-74
2022/05/13 04:35:46;;;;;;;9.52;5.70;;;15.80;99.50;;;;;;2080071;28;20068;-75
2022/05/13 04:36:47;;;;;;;6.40;5.38;;;15.60;99.90;;;;;;2088447;28;20036;-74
2022/05/13 04:37:47;;;;;;;8.23;5.90;;;15.50;99.90;;;;;;2088251;28;20502;-74
2022/05/13 04:38:48;;;;;;;7.38;5.50;;;15.40;99.90;;;;;;2080006;28;20021;-74
2022/05/13 04:39:52;;;;;;;8.05;5.50;;;15.30;99.90;;;;;;2088205;28;20113;-74
2022/05/13 04:40:53;;;;;;;6.05;5.00;;;15.30;99.90;;;;;;2088287;28;20557;-73
2022/05/13 04:43:13;;;;;;;9.68;5.95;;;15.20;99.90;;;;;;2088944;28;20024;-74
2022/05/13 04:44:15;;;;;;;8.35;5.65;;;15.30;99.90;;;;;;2088532;28;20044;-74
2022/05/13 04:45:27;;;;;;;8.05;5.35;;;15.20;99.90;;;;;;2089020;28;20120;-73
2022/05/13 04:46:30;;;;;;;8.10;5.40;;;15.30;99.90;;;;;;2088192;28;20094;-74
2022/05/13 04:48:51;;;;;;;9.13;5.10;;;15.70;99.90;;;;;;2088814;28;20041;-74
2022/05/13 04:49:52;;;;;;;9.25;5.50;;;16.00;99.90;;;;;;2088967;28;20510;-74
2022/05/13 04:51:01;;;;;;;7.95;5.18;;;16.20;99.90;;;;;;2088742;28;20116;-74
2022/05/13 04:52:01;;;;;;;9.63;5.15;;;16.30;99.90;;;;;;2088142;28;20025;-73
2022/05/13 04:53:03;;;;;;;8.40;5.13;;;16.30;99.70;;;;;;2088048;28;20048;-71
2022/05/13 04:54:05;;;;;;;8.02;5.35;;;16.30;99.50;;;;;;2088013;28;20025;-74
2022/05/13 04:55:06;;;;;;;7.60;5.35;;;16.30;99.60;;;;;;2087994;28;20040;-73
2022/05/13 04:56:08;;;;;;;7.40;5.40;;;16.20;99.40;;;;;;2087948;28;20041;-74
2022/05/13 04:57:09;;;;;;;8.32;5.70;;;16.20;99.40;;;;;;2087904;28;20043;-73
2022/05/13 04:58:09;;;;;;;7.03;5.28;;;16.10;98.90;;;;;;2088387;28;20048;-72
2022/05/13 04:59:10;;;;;;;7.55;5.60;;;16.00;98.80;;;;;;2088670;28;20434;-74
2022/05/13 05:00:11;;;;;;;10.73;5.50;;;15.90;99.10;;;;;;2088575;28;20820;-73
2022/05/13 05:01:13;;;;;;;6.57;5.20;;;16.00;99.30;;;;;;2088839;28;20048;-73
2022/05/13 05:02:13;;;;;;;8.40;5.00;;;16.10;99.50;;;;;;2088703;28;20032;-73
2022/05/13 05:03:15;;;;;;;7.50;5.43;;;16.40;98.80;;;;;;2088685;28;20025;-73
2022/05/13 05:04:16;;;;;;;8.35;5.25;;;16.60;97.90;;;;;;2088398;28;20071;-72
2022/05/13 05:05:16;;;;;;;5.50;4.90;;;16.70;97.00;;;;;;2088728;28;20036;-73
2022/05/13 05:06:19;;;;;;;5.60;4.53;;;16.80;96.40;;;;;;2088814;28;20027;-73
2022/05/13 05:07:19;;;;;;;7.00;5.25;;;16.90;95.80;;;;;;2088656;28;20041;-73
2022/05/13 05:08:20;;;;;;;15.63;5.55;;;16.90;95.50;;;;;;2088469;28;20032;-73
2022/05/13 05:09:20;;;;;;;6.78;5.10;;;16.90;95.50;;;;;;2088502;28;20029;-72
2022/05/13 05:10:22;;;;;;;8.02;5.45;;;16.80;95.70;;;;;;2088246;28;20025;-73
2022/05/13 05:11:22;;;;;;;8.05;5.95;;;16.80;95.90;;;;;;2087950;28;20037;-72
2022/05/13 05:12:23;;;;;;;10.13;5.65;;;16.60;96.30;;;;;;2087999;28;20393;-72
2022/05/13 05:13:30;;;;;;;7.03;5.30;;;16.50;96.80;;;;;;2079643;28;20084;-72
2022/05/13 05:14:32;;;;;;;7.93;5.38;;;16.40;97.20;;;;;;2080244;28;20072;-72
2022/05/13 05:15:32;;;;;;;15.55;5.82;;;16.30;97.50;;;;;;2088488;28;20075;-73
2022/05/13 05:16:33;;;;;;;8.45;5.60;;;16.30;98.10;;;;;;2088490;28;20029;-72
2022/05/13 05:17:34;;;;;;;8.15;5.50;;;16.30;98.40;;;;;;2088437;28;20132;-73
2022/05/13 05:18:38;;;;;;;10.20;5.50;;;16.40;98.30;;;;;;2088628;28;20044;-75
2022/05/13 05:19:39;;;;;;;8.38;5.13;;;16.60;98.00;;;;;;2088346;28;20107;-73
2022/05/13 05:20:41;;;;;;;7.72;4.97;;;16.80;97.60;;;;;;2087938;28;20041;-76
2022/05/13 05:21:42;;;;;;;9.02;5.28;;;17.10;96.90;;;;;;2088577;28;20483;-72
2022/05/13 05:22:46;;;;;;;7.80;5.18;;;17.30;95.30;;;;;;2088688;28;20044;-74
2022/05/13 05:23:48;;;;;;;6.38;5.03;;;17.50;93.80;;;;;;2088044;28;20407;-72
2022/05/13 05:24:49;;;;;;;6.47;4.97;;;17.70;93.10;;;;;;2087644;28;20699;-74
2022/05/13 05:25:50;;;;;;;8.20;4.90;;;18.00;92.70;;;;;;2088582;28;20036;-75
2022/05/13 05:26:51;;;;;;;6.93;4.97;;;18.30;91.70;;;;;;2088724;28;20120;-75
2022/05/13 05:27:52;;;;;;;11.82;5.40;;;18.60;90.50;;;;;;2088460;28;20021;-74
2022/05/13 05:28:54;;;;;;;7.78;5.30;;;18.90;87.50;;;;;;2088307;28;20020;-73
2022/05/13 05:29:54;;;;;;;8.80;5.03;;;19.00;84.80;;;;;;2088349;28;20578;-71
2022/05/13 05:30:56;;;;;;;10.32;5.13;;;19.10;83.50;;;;;;2088520;28;20033;-73
2022/05/13 05:31:57;;;;;;;7.32;5.20;;;19.00;82.70;;;;;;2088514;28;20025;-73
2022/05/13 05:32:57;;;;;;;8.05;4.82;;;19.00;82.60;;;;;;2088371;28;20021;-73
2022/05/13 05:33:58;;;;;;;6.80;5.10;;;18.90;82.40;;;;;;2088396;28;20151;-73
2022/05/13 05:34:59;;;;;;;10.45;5.65;;;18.90;82.30;;;;;;2088223;28;20021;-72
2022/05/13 05:36:00;;;;;;;8.30;5.40;;;18.80;82.00;;;;;;2088489;28;20033;-73